Buggenhout, Belgium
Current Conditions -  °F | °C
As of 12:50 PM on Thursday 27 Nov 2014 (Local Time) from EBAW Reporting Station
Broken Clouds Broken Clouds  
Wind Chill: 50°   Ceiling: 1400
Heat Index: 50°   Visibility: 6mi
Dew Point: 46°   Wind: 6mph
Humidity: 87%   Direction: 120°ESE
Pressure: 29.71"   Gusts: NA
Location:  51.02°N, 4.2°E
Report Text: EBAW 271150Z 12005KT 090V150 9999 FEW012 BKN014 10/08 Q1006 TEMPO BKN009
Loading
Personal Weather Stations






























Interactive Weather Map New forecast layout! Learn more

10-Day Weather Forecast

Advertisements
Track Severe Weather on mobile